sensor_id;sensor_type;location;lat;lon;timestamp;temperature;humidity
52044;DHT22;38053;53.100;6.078;2022-09-03T00:00:00;17.50;90.00
52044;DHT22;38053;53.100;6.078;2022-09-03T00:02:40;17.40;90.00
52044;DHT22;38053;53.100;6.078;2022-09-03T00:05:26;17.40;90.00
52044;DHT22;38053;53.100;6.078;2022-09-03T00:11:42;17.40;90.20
52044;DHT22;38053;53.100;6.078;2022-09-03T00:15:06;17.30;90.10
52044;DHT22;38053;53.100;6.078;2022-09-03T00:17:37;17.30;90.50
52044;DHT22;38053;53.100;6.078;2022-09-03T00:20:56;17.20;90.20
52044;DHT22;38053;53.100;6.078;2022-09-03T00:23:26;17.20;90.30
52044;DHT22;38053;53.100;6.078;2022-09-03T00:29:12;17.10;90.40
52044;DHT22;38053;53.100;6.078;2022-09-03T00:32:10;17.00;90.50
52044;DHT22;38053;53.100;6.078;2022-09-03T00:34:42;16.90;90.50
52044;DHT22;38053;53.100;6.078;2022-09-03T00:37:22;16.90;90.80
52044;DHT22;38053;53.100;6.078;2022-09-03T00:40:13;16.80;90.60
52044;DHT22;38053;53.100;6.078;2022-09-03T00:42:52;16.80;90.80
52044;DHT22;38053;53.100;6.078;2022-09-03T00:45:50;16.80;90.70
52044;DHT22;38053;53.100;6.078;2022-09-03T01:00:19;16.60;90.80
52044;DHT22;38053;53.100;6.078;2022-09-03T01:05:50;16.50;90.80
52044;DHT22;38053;53.100;6.078;2022-09-03T01:14:30;16.50;91.30
52044;DHT22;38053;53.100;6.078;2022-09-03T01:20:20;16.40;91.30
52044;DHT22;38053;53.100;6.078;2022-09-03T01:29:06;16.40;91.30
52044;DHT22;38053;53.100;6.078;2022-09-03T01:32:30;16.30;91.50
52044;DHT22;38053;53.100;6.078;2022-09-03T01:35:29;16.30;91.40
52044;DHT22;38053;53.100;6.078;2022-09-03T01:41:34;16.30;91.40
52044;DHT22;38053;53.100;6.078;2022-09-03T01:48:02;16.30;91.40
52044;DHT22;38053;53.100;6.078;2022-09-03T01:50:52;16.30;91.30
52044;DHT22;38053;53.100;6.078;2022-09-03T02:00:05;16.30;91.60
52044;DHT22;38053;53.100;6.078;2022-09-03T02:02:42;16.30;91.40
52044;DHT22;38053;53.100;6.078;2022-09-03T02:05:17;16.30;91.50
52044;DHT22;38053;53.100;6.078;2022-09-03T02:07:58;16.30;91.50
52044;DHT22;38053;53.100;6.078;2022-09-03T02:10:50;16.30;91.60
52044;DHT22;38053;53.100;6.078;2022-09-03T02:13:24;16.30;91.60
52044;DHT22;38053;53.100;6.078;2022-09-03T02:15:52;16.30;91.50
52044;DHT22;38053;53.100;6.078;2022-09-03T02:18:35;16.30;91.50
52044;DHT22;38053;53.100;6.078;2022-09-03T02:21:26;16.30;91.60
52044;DHT22;38053;53.100;6.078;2022-09-03T02:23:58;16.30;91.70
52044;DHT22;38053;53.100;6.078;2022-09-03T02:26:37;16.20;91.60
52044;DHT22;38053;53.100;6.078;2022-09-03T02:29:15;16.20;91.60
52044;DHT22;38053;53.100;6.078;2022-09-03T02:31:56;16.20;91.70
52044;DHT22;38053;53.100;6.078;2022-09-03T02:34:24;16.20;92.00
52044;DHT22;38053;53.100;6.078;2022-09-03T02:36:53;16.20;92.10
52044;DHT22;38053;53.100;6.078;2022-09-03T02:39:25;16.20;91.80
52044;DHT22;38053;53.100;6.078;2022-09-03T02:42:17;16.10;91.80
52044;DHT22;38053;53.100;6.078;2022-09-03T02:44:59;16.10;91.90
52044;DHT22;38053;53.100;6.078;2022-09-03T02:47:50;16.10;92.00
52044;DHT22;38053;53.100;6.078;2022-09-03T02:50:24;16.10;92.00
52044;DHT22;38053;53.100;6.078;2022-09-03T02:52:53;16.00;92.10
52044;DHT22;38053;53.100;6.078;2022-09-03T02:55:19;16.00;92.00
52044;DHT22;38053;53.100;6.078;2022-09-03T02:57:50;16.00;92.10
52044;DHT22;38053;53.100;6.078;2022-09-03T03:00:27;16.00;92.20
52044;DHT22;38053;53.100;6.078;2022-09-03T03:03:02;15.90;92.30
52044;DHT22;38053;53.100;6.078;2022-09-03T03:05:45;15.90;92.50
52044;DHT22;38053;53.100;6.078;2022-09-03T03:08:26;15.90;92.60
52044;DHT22;38053;53.100;6.078;2022-09-03T03:10:54;15.80;92.50
52044;DHT22;38053;53.100;6.078;2022-09-03T03:13:32;15.80;93.00
52044;DHT22;38053;53.100;6.078;2022-09-03T03:16:06;15.70;92.60
52044;DHT22;38053;53.100;6.078;2022-09-03T03:18:46;15.70;92.90
52044;DHT22;38053;53.100;6.078;2022-09-03T03:21:35;15.70;92.80
52044;DHT22;38053;53.100;6.078;2022-09-03T03:24:24;15.70;93.20
52044;DHT22;38053;53.100;6.078;2022-09-03T03:27:01;15.60;92.90
52044;DHT22;38053;53.100;6.078;2022-09-03T03:29:33;15.60;93.00
52044;DHT22;38053;53.100;6.078;2022-09-03T03:32:05;15.60;93.00
52044;DHT22;38053;53.100;6.078;2022-09-03T03:34:53;15.50;93.30
52044;DHT22;38053;53.100;6.078;2022-09-03T03:37:25;15.50;93.20
52044;DHT22;38053;53.100;6.078;2022-09-03T03:40:08;15.50;93.50
52044;DHT22;38053;53.100;6.078;2022-09-03T03:42:34;15.40;93.30
52044;DHT22;38053;53.100;6.078;2022-09-03T03:45:05;15.40;93.30
52044;DHT22;38053;53.100;6.078;2022-09-03T03:47:34;15.40;93.40
52044;DHT22;38053;53.100;6.078;2022-09-03T03:50:01;15.40;93.50
52044;DHT22;38053;53.100;6.078;2022-09-03T03:52:29;15.40;93.60
52044;DHT22;38053;53.100;6.078;2022-09-03T03:55:06;15.40;93.70
52044;DHT22;38053;53.100;6.078;2022-09-03T03:57:35;15.30;93.70
52044;DHT22;38053;53.100;6.078;2022-09-03T04:00:04;15.30;93.70
52044;DHT22;38053;53.100;6.078;2022-09-03T04:02:39;15.40;93.80
52044;DHT22;38053;53.100;6.078;2022-09-03T04:05:05;15.40;93.90
52044;DHT22;38053;53.100;6.078;2022-09-03T04:07:31;15.40;93.80
52044;DHT22;38053;53.100;6.078;2022-09-03T04:10:03;15.40;93.80
52044;DHT22;38053;53.100;6.078;2022-09-03T04:12:48;15.40;93.90
52044;DHT22;38053;53.100;6.078;2022-09-03T04:15:16;15.40;93.80
52044;DHT22;38053;53.100;6.078;2022-09-03T04:17:42;15.40;93.70
52044;DHT22;38053;53.100;6.078;2022-09-03T04:20:43;15.40;93.70
52044;DHT22;38053;53.100;6.078;2022-09-03T04:23:27;15.40;94.20
52044;DHT22;38053;53.100;6.078;2022-09-03T04:25:58;15.40;93.90
52044;DHT22;38053;53.100;6.078;2022-09-03T04:28:39;15.40;93.70
52044;DHT22;38053;53.100;6.078;2022-09-03T04:31:18;15.40;93.80
52044;DHT22;38053;53.100;6.078;2022-09-03T04:33:44;15.40;94.00
52044;DHT22;38053;53.100;6.078;2022-09-03T04:36:23;15.40;93.90
52044;DHT22;38053;53.100;6.078;2022-09-03T04:38:53;15.40;93.90
52044;DHT22;38053;53.100;6.078;2022-09-03T04:41:37;15.30;93.90
52044;DHT22;38053;53.100;6.078;2022-09-03T04:44:08;15.30;94.20
52044;DHT22;38053;53.100;6.078;2022-09-03T04:46:34;15.30;94.10
52044;DHT22;38053;53.100;6.078;2022-09-03T04:49:03;15.30;94.10
52044;DHT22;38053;53.100;6.078;2022-09-03T04:51:46;15.30;94.10
52044;DHT22;38053;53.100;6.078;2022-09-03T04:54:12;15.20;94.20
52044;DHT22;38053;53.100;6.078;2022-09-03T04:56:41;15.20;94.30
52044;DHT22;38053;53.100;6.078;2022-09-03T04:59:18;15.20;94.40
52044;DHT22;38053;53.100;6.078;2022-09-03T05:01:47;15.10;94.50
52044;DHT22;38053;53.100;6.078;2022-09-03T05:04:15;15.10;94.40
52044;DHT22;38053;53.100;6.078;2022-09-03T05:06:41;15.00;94.40
52044;DHT22;38053;53.100;6.078;2022-09-03T05:09:10;15.00;94.50
52044;DHT22;38053;53.100;6.078;2022-09-03T05:11:36;15.00;94.50
52044;DHT22;38053;53.100;6.078;2022-09-03T05:14:02;15.00;94.70
52044;DHT22;38053;53.100;6.078;2022-09-03T05:16:33;14.90;94.70
52044;DHT22;38053;53.100;6.078;2022-09-03T05:19:08;14.90;94.80
52044;DHT22;38053;53.100;6.078;2022-09-03T05:21:40;14.90;95.10
52044;DHT22;38053;53.100;6.078;2022-09-03T05:24:22;14.80;94.80
52044;DHT22;38053;53.100;6.078;2022-09-03T05:26:59;14.90;95.10
52044;DHT22;38053;53.100;6.078;2022-09-03T05:29:45;14.90;94.80
52044;DHT22;38053;53.100;6.078;2022-09-03T05:32:14;14.90;95.60
52044;DHT22;38053;53.100;6.078;2022-09-03T05:34:50;14.90;95.00
52044;DHT22;38053;53.100;6.078;2022-09-03T05:37:33;14.90;95.20
52044;DHT22;38053;53.100;6.078;2022-09-03T05:40:22;14.90;95.40
52044;DHT22;38053;53.100;6.078;2022-09-03T05:42:54;14.90;95.50
52044;DHT22;38053;53.100;6.078;2022-09-03T05:45:24;14.90;95.30
52044;DHT22;38053;53.100;6.078;2022-09-03T05:47:54;14.90;95.70
52044;DHT22;38053;53.100;6.078;2022-09-03T05:50:42;14.90;95.40
52044;DHT22;38053;53.100;6.078;2022-09-03T05:53:13;14.90;95.50
52044;DHT22;38053;53.100;6.078;2022-09-03T05:56:00;14.90;95.80
52044;DHT22;38053;53.100;6.078;2022-09-03T05:58:40;14.90;96.10
52044;DHT22;38053;53.100;6.078;2022-09-03T06:01:41;14.90;95.60
52044;DHT22;38053;53.100;6.078;2022-09-03T06:04:17;15.00;95.80
52044;DHT22;38053;53.100;6.078;2022-09-03T06:07:06;15.00;95.70
52044;DHT22;38053;53.100;6.078;2022-09-03T06:09:49;15.00;95.90
52044;DHT22;38053;53.100;6.078;2022-09-03T06:12:39;15.00;96.00
52044;DHT22;38053;53.100;6.078;2022-09-03T06:15:08;15.10;95.90
52044;DHT22;38053;53.100;6.078;2022-09-03T06:18:03;15.10;95.80
52044;DHT22;38053;53.100;6.078;2022-09-03T06:20:52;15.10;96.10
52044;DHT22;38053;53.100;6.078;2022-09-03T06:23:27;15.10;95.90
52044;DHT22;38053;53.100;6.078;2022-09-03T06:29:22;15.20;96.20
52044;DHT22;38053;53.100;6.078;2022-09-03T06:32:10;15.20;95.80
52044;DHT22;38053;53.100;6.078;2022-09-03T06:37:55;15.30;96.10
52044;DHT22;38053;53.100;6.078;2022-09-03T06:40:29;15.30;95.80
52044;DHT22;38053;53.100;6.078;2022-09-03T06:42:57;15.30;96.00
52044;DHT22;38053;53.100;6.078;2022-09-03T06:48:32;15.40;95.90
52044;DHT22;38053;53.100;6.078;2022-09-03T06:51:11;15.40;96.10
52044;DHT22;38053;53.100;6.078;2022-09-03T06:53:44;15.50;96.00
52044;DHT22;38053;53.100;6.078;2022-09-03T06:56:22;15.60;95.90
52044;DHT22;38053;53.100;6.078;2022-09-03T06:59:30;15.60;95.90
52044;DHT22;38053;53.100;6.078;2022-09-03T07:02:03;15.70;96.20
52044;DHT22;38053;53.100;6.078;2022-09-03T07:04:32;15.70;95.70
52044;DHT22;38053;53.100;6.078;2022-09-03T07:07:18;15.80;95.90
52044;DHT22;38053;53.100;6.078;2022-09-03T07:09:49;15.80;95.80
52044;DHT22;38053;53.100;6.078;2022-09-03T07:12:20;15.90;95.80
52044;DHT22;38053;53.100;6.078;2022-09-03T07:14:57;16.00;95.70
52044;DHT22;38053;53.100;6.078;2022-09-03T07:17:29;16.00;95.80
52044;DHT22;38053;53.100;6.078;2022-09-03T07:20:43;16.10;95.70
52044;DHT22;38053;53.100;6.078;2022-09-03T07:23:20;16.10;95.70
52044;DHT22;38053;53.100;6.078;2022-09-03T07:25:52;16.20;95.70
52044;DHT22;38053;53.100;6.078;2022-09-03T07:28:48;16.30;95.70
52044;DHT22;38053;53.100;6.078;2022-09-03T07:34:09;16.40;95.60
52044;DHT22;38053;53.100;6.078;2022-09-03T07:36:54;16.50;95.50
52044;DHT22;38053;53.100;6.078;2022-09-03T07:39:43;16.60;95.30
52044;DHT22;38053;53.100;6.078;2022-09-03T07:42:21;16.60;95.30
52044;DHT22;38053;53.100;6.078;2022-09-03T07:44:57;16.70;95.20
52044;DHT22;38053;53.100;6.078;2022-09-03T07:47:24;16.80;95.00
52044;DHT22;38053;53.100;6.078;2022-09-03T07:49:50;16.90;94.90
52044;DHT22;38053;53.100;6.078;2022-09-03T07:52:25;17.00;95.00
52044;DHT22;38053;53.100;6.078;2022-09-03T07:54:52;17.10;94.80
52044;DHT22;38053;53.100;6.078;2022-09-03T07:57:36;17.10;94.80
52044;DHT22;38053;53.100;6.078;2022-09-03T08:00:15;17.20;94.70
52044;DHT22;38053;53.100;6.078;2022-09-03T08:02:44;17.30;94.70
52044;DHT22;38053;53.100;6.078;2022-09-03T08:05:10;17.40;94.70
52044;DHT22;38053;53.100;6.078;2022-09-03T08:07:59;17.50;94.30
52044;DHT22;38053;53.100;6.078;2022-09-03T08:14:09;17.70;94.30
52044;DHT22;38053;53.100;6.078;2022-09-03T08:16:48;17.80;94.20
52044;DHT22;38053;53.100;6.078;2022-09-03T08:19:17;17.90;94.00
52044;DHT22;38053;53.100;6.078;2022-09-03T08:21:48;17.90;94.00
52044;DHT22;38053;53.100;6.078;2022-09-03T08:24:15;18.00;93.90
52044;DHT22;38053;53.100;6.078;2022-09-03T08:26:42;18.10;93.90
52044;DHT22;38053;53.100;6.078;2022-09-03T08:29:08;18.20;93.90
52044;DHT22;38053;53.100;6.078;2022-09-03T08:31:34;18.30;93.90
52044;DHT22;38053;53.100;6.078;2022-09-03T08:34:02;18.40;93.90
52044;DHT22;38053;53.100;6.078;2022-09-03T08:36:30;18.50;93.70
52044;DHT22;38053;53.100;6.078;2022-09-03T08:38:58;18.60;93.70
52044;DHT22;38053;53.100;6.078;2022-09-03T08:44:47;18.90;93.50
52044;DHT22;38053;53.100;6.078;2022-09-03T08:47:21;19.10;93.40
52044;DHT22;38053;53.100;6.078;2022-09-03T08:54:49;19.50;92.80
52044;DHT22;38053;53.100;6.078;2022-09-03T08:57:18;19.60;92.90
52044;DHT22;38053;53.100;6.078;2022-09-03T08:59:46;19.70;92.80
52044;DHT22;38053;53.100;6.078;2022-09-03T09:05:07;19.90;92.50
52044;DHT22;38053;53.100;6.078;2022-09-03T09:10:46;20.20;92.10
52044;DHT22;38053;53.100;6.078;2022-09-03T09:13:53;20.40;92.40
52044;DHT22;38053;53.100;6.078;2022-09-03T09:17:01;20.40;91.90
52044;DHT22;38053;53.100;6.078;2022-09-03T09:22:42;20.80;91.70
52044;DHT22;38053;53.100;6.078;2022-09-03T09:25:22;21.00;91.70
52044;DHT22;38053;53.100;6.078;2022-09-03T09:30:58;21.20;91.60
52044;DHT22;38053;53.100;6.078;2022-09-03T09:33:38;21.40;91.20
52044;DHT22;38053;53.100;6.078;2022-09-03T09:36:16;21.60;91.50
52044;DHT22;38053;53.100;6.078;2022-09-03T09:38:45;21.80;91.20
52044;DHT22;38053;53.100;6.078;2022-09-03T09:41:18;21.90;90.90
52044;DHT22;38053;53.100;6.078;2022-09-03T09:43:45;22.10;90.40
52044;DHT22;38053;53.100;6.078;2022-09-03T09:46:19;22.10;90.40
52044;DHT22;38053;53.100;6.078;2022-09-03T09:48:52;22.20;88.90
52044;DHT22;38053;53.100;6.078;2022-09-03T09:51:29;22.30;90.20
52044;DHT22;38053;53.100;6.078;2022-09-03T09:54:16;22.60;90.00
52044;DHT22;38053;53.100;6.078;2022-09-03T09:56:57;22.80;89.20
52044;DHT22;38053;53.100;6.078;2022-09-03T09:59:23;22.90;88.60
52044;DHT22;38053;53.100;6.078;2022-09-03T10:01:48;23.10;89.10
52044;DHT22;38053;53.100;6.078;2022-09-03T10:04:27;23.30;89.00
52044;DHT22;38053;53.100;6.078;2022-09-03T10:10:02;23.60;87.00
52044;DHT22;38053;53.100;6.078;2022-09-03T10:12:52;23.80;87.70
52044;DHT22;38053;53.100;6.078;2022-09-03T10:16:02;24.00;86.70
52044;DHT22;38053;53.100;6.078;2022-09-03T10:19:08;24.20;86.40
52044;DHT22;38053;53.100;6.078;2022-09-03T10:22:11;24.40;85.90
52044;DHT22;38053;53.100;6.078;2022-09-03T10:24:58;24.60;85.70
52044;DHT22;38053;53.100;6.078;2022-09-03T10:27:25;24.90;84.70
52044;DHT22;38053;53.100;6.078;2022-09-03T10:29:51;24.90;84.20
52044;DHT22;38053;53.100;6.078;2022-09-03T10:32:47;25.00;84.50
52044;DHT22;38053;53.100;6.078;2022-09-03T10:36:22;25.10;84.20
52044;DHT22;38053;53.100;6.078;2022-09-03T10:42:09;25.30;82.60
52044;DHT22;38053;53.100;6.078;2022-09-03T10:56:48;25.90;79.60
52044;DHT22;38053;53.100;6.078;2022-09-03T11:02:15;26.00;80.50
52044;DHT22;38053;53.100;6.078;2022-09-03T11:07:27;26.00;80.50
52044;DHT22;38053;53.100;6.078;2022-09-03T11:10:20;26.10;79.40
52044;DHT22;38053;53.100;6.078;2022-09-03T11:15:41;26.40;78.20
52044;DHT22;38053;53.100;6.078;2022-09-03T11:20:43;26.60;78.50
52044;DHT22;38053;53.100;6.078;2022-09-03T11:23:15;26.60;76.90
52044;DHT22;38053;53.100;6.078;2022-09-03T11:25:48;26.60;77.10
52044;DHT22;38053;53.100;6.078;2022-09-03T11:33:23;27.00;77.00
52044;DHT22;38053;53.100;6.078;2022-09-03T11:36:00;27.10;76.00
52044;DHT22;38053;53.100;6.078;2022-09-03T11:38:28;27.30;76.20
52044;DHT22;38053;53.100;6.078;2022-09-03T11:41:12;27.60;75.70
52044;DHT22;38053;53.100;6.078;2022-09-03T11:43:42;27.80;75.30
52044;DHT22;38053;53.100;6.078;2022-09-03T11:53:57;28.40;72.70
52044;DHT22;38053;53.100;6.078;2022-09-03T11:56:23;28.60;73.00
52044;DHT22;38053;53.100;6.078;2022-09-03T11:59:05;28.80;72.60
52044;DHT22;38053;53.100;6.078;2022-09-03T12:01:48;29.10;71.30
52044;DHT22;38053;53.100;6.078;2022-09-03T12:04:18;29.20;70.50
52044;DHT22;38053;53.100;6.078;2022-09-03T12:09:53;29.50;70.40
52044;DHT22;38053;53.100;6.078;2022-09-03T12:18:22;30.00;67.10
52044;DHT22;38053;53.100;6.078;2022-09-03T12:23:41;30.30;67.50
52044;DHT22;38053;53.100;6.078;2022-09-03T12:26:12;30.50;66.70
52044;DHT22;38053;53.100;6.078;2022-09-03T12:28:49;30.60;66.50
52044;DHT22;38053;53.100;6.078;2022-09-03T12:31:29;30.90;65.00
52044;DHT22;38053;53.100;6.078;2022-09-03T12:36:24;30.80;64.00
52044;DHT22;38053;53.100;6.078;2022-09-03T12:38:51;31.10;65.50
52044;DHT22;38053;53.100;6.078;2022-09-03T12:41:26;31.40;64.10
52044;DHT22;38053;53.100;6.078;2022-09-03T12:43:54;31.50;63.10
52044;DHT22;38053;53.100;6.078;2022-09-03T12:46:26;31.40;63.60
52044;DHT22;38053;53.100;6.078;2022-09-03T12:51:18;31.30;64.20
52044;DHT22;38053;53.100;6.078;2022-09-03T12:53:46;31.20;62.80
52044;DHT22;38053;53.100;6.078;2022-09-03T12:56:12;31.00;62.70
52044;DHT22;38053;53.100;6.078;2022-09-03T12:58:46;30.40;63.30
52044;DHT22;38053;53.100;6.078;2022-09-03T13:01:17;30.20;63.40
52044;DHT22;38053;53.100;6.078;2022-09-03T13:03:57;30.10;63.90
52044;DHT22;38053;53.100;6.078;2022-09-03T13:06:27;29.70;63.90
52044;DHT22;38053;53.100;6.078;2022-09-03T13:08:59;29.20;64.40
52044;DHT22;38053;53.100;6.078;2022-09-03T13:11:32;29.10;64.70
52044;DHT22;38053;53.100;6.078;2022-09-03T13:14:10;28.90;64.00
52044;DHT22;38053;53.100;6.078;2022-09-03T13:30:10;27.60;66.30
52044;DHT22;38053;53.100;6.078;2022-09-03T13:43:51;27.70;65.90
52044;DHT22;38053;53.100;6.078;2022-09-03T13:46:38;27.70;65.70
52044;DHT22;38053;53.100;6.078;2022-09-03T13:52:25;28.30;65.20
52044;DHT22;38053;53.100;6.078;2022-09-03T13:54:56;28.60;64.80
52044;DHT22;38053;53.100;6.078;2022-09-03T13:57:39;28.70;64.40
52044;DHT22;38053;53.100;6.078;2022-09-03T14:00:13;28.50;64.30
52044;DHT22;38053;53.100;6.078;2022-09-03T14:03:49;28.30;64.30
52044;DHT22;38053;53.100;6.078;2022-09-03T14:14:54;28.10;64.70
52044;DHT22;38053;53.100;6.078;2022-09-03T14:20:30;27.50;65.80
52044;DHT22;38053;53.100;6.078;2022-09-03T14:23:04;27.30;66.20
52044;DHT22;38053;53.100;6.078;2022-09-03T14:25:31;27.20;66.30
52044;DHT22;38053;53.100;6.078;2022-09-03T14:28:14;27.10;66.10
52044;DHT22;38053;53.100;6.078;2022-09-03T14:30:50;27.10;66.20
52044;DHT22;38053;53.100;6.078;2022-09-03T14:33:58;27.00;66.50
52044;DHT22;38053;53.100;6.078;2022-09-03T14:36:52;26.90;67.00
52044;DHT22;38053;53.100;6.078;2022-09-03T14:58:34;26.50;67.50
52044;DHT22;38053;53.100;6.078;2022-09-03T15:01:11;26.40;66.40
52044;DHT22;38053;53.100;6.078;2022-09-03T15:09:14;26.40;67.40
52044;DHT22;38053;53.100;6.078;2022-09-03T15:14:58;26.40;67.80
52044;DHT22;38053;53.100;6.078;2022-09-03T15:34:33;25.80;67.90
52044;DHT22;38053;53.100;6.078;2022-09-03T15:37:01;25.80;68.40
52044;DHT22;38053;53.100;6.078;2022-09-03T15:39:36;25.80;68.20
52044;DHT22;38053;53.100;6.078;2022-09-03T15:42:05;25.80;68.40
52044;DHT22;38053;53.100;6.078;2022-09-03T15:44:40;25.80;68.40
52044;DHT22;38053;53.100;6.078;2022-09-03T15:47:12;25.80;68.80
52044;DHT22;38053;53.100;6.078;2022-09-03T15:49:58;25.80;68.40
52044;DHT22;38053;53.100;6.078;2022-09-03T15:55:13;25.90;68.00
52044;DHT22;38053;53.100;6.078;2022-09-03T16:00:52;25.90;69.00
52044;DHT22;38053;53.100;6.078;2022-09-03T16:03:32;25.80;67.50
52044;DHT22;38053;53.100;6.078;2022-09-03T16:06:06;25.80;68.80
52044;DHT22;38053;53.100;6.078;2022-09-03T16:08:45;25.80;68.50
52044;DHT22;38053;53.100;6.078;2022-09-03T16:11:27;25.80;68.80
52044;DHT22;38053;53.100;6.078;2022-09-03T16:19:55;25.60;69.30
52044;DHT22;38053;53.100;6.078;2022-09-03T16:25:19;25.50;69.20
52044;DHT22;38053;53.100;6.078;2022-09-03T16:27:57;25.40;69.70
52044;DHT22;38053;53.100;6.078;2022-09-03T16:38:22;25.20;69.70
52044;DHT22;38053;53.100;6.078;2022-09-03T16:46:49;25.10;70.70
52044;DHT22;38053;53.100;6.078;2022-09-03T16:49:48;25.00;70.50
52044;DHT22;38053;53.100;6.078;2022-09-03T16:55:15;24.90;70.80
52044;DHT22;38053;53.100;6.078;2022-09-03T16:58:19;24.90;71.10
52044;DHT22;38053;53.100;6.078;2022-09-03T17:04:02;24.80;71.30
52044;DHT22;38053;53.100;6.078;2022-09-03T17:12:47;24.60;72.40
52044;DHT22;38053;53.100;6.078;2022-09-03T17:15:31;24.50;72.30
52044;DHT22;38053;53.100;6.078;2022-09-03T17:21:20;24.40;72.60
52044;DHT22;38053;53.100;6.078;2022-09-03T17:35:19;24.00;74.00
52044;DHT22;38053;53.100;6.078;2022-09-03T17:43:00;23.70;74.80
52044;DHT22;38053;53.100;6.078;2022-09-03T17:48:57;23.50;75.70
52044;DHT22;38053;53.100;6.078;2022-09-03T17:54:40;23.40;75.90
52044;DHT22;38053;53.100;6.078;2022-09-03T17:57:21;23.30;76.30
52044;DHT22;38053;53.100;6.078;2022-09-03T18:00:10;23.30;76.20
52044;DHT22;38053;53.100;6.078;2022-09-03T18:02:44;23.20;77.70
52044;DHT22;38053;53.100;6.078;2022-09-03T18:05:31;23.10;77.10
52044;DHT22;38053;53.100;6.078;2022-09-03T18:11:11;22.90;78.90
52044;DHT22;38053;53.100;6.078;2022-09-03T18:16:32;22.70;78.70
52044;DHT22;38053;53.100;6.078;2022-09-03T18:21:58;22.40;79.70
52044;DHT22;38053;53.100;6.078;2022-09-03T18:24:53;22.30;79.30
52044;DHT22;38053;53.100;6.078;2022-09-03T18:30:45;22.10;80.20
52044;DHT22;38053;53.100;6.078;2022-09-03T18:33:29;22.00;80.80
52044;DHT22;38053;53.100;6.078;2022-09-03T18:36:13;21.90;81.10
52044;DHT22;38053;53.100;6.078;2022-09-03T18:39:25;21.80;81.70
52044;DHT22;38053;53.100;6.078;2022-09-03T18:42:55;21.70;83.00
52044;DHT22;38053;53.100;6.078;2022-09-03T18:45:48;21.60;83.70
52044;DHT22;38053;53.100;6.078;2022-09-03T18:48:53;21.50;82.70
52044;DHT22;38053;53.100;6.078;2022-09-03T18:51:44;21.40;83.20
52044;DHT22;38053;53.100;6.078;2022-09-03T19:00:54;21.10;83.70
52044;DHT22;38053;53.100;6.078;2022-09-03T19:07:13;20.90;85.20
52044;DHT22;38053;53.100;6.078;2022-09-03T19:10:04;20.90;84.40
52044;DHT22;38053;53.100;6.078;2022-09-03T19:13:12;20.90;84.70
52044;DHT22;38053;53.100;6.078;2022-09-03T19:16:08;20.90;85.20
52044;DHT22;38053;53.100;6.078;2022-09-03T19:22:11;20.80;86.00
52044;DHT22;38053;53.100;6.078;2022-09-03T19:25:04;20.70;86.00
52044;DHT22;38053;53.100;6.078;2022-09-03T19:28:08;20.70;85.70
52044;DHT22;38053;53.100;6.078;2022-09-03T19:37:19;20.50;85.90
52044;DHT22;38053;53.100;6.078;2022-09-03T19:43:20;20.40;85.90
52044;DHT22;38053;53.100;6.078;2022-09-03T19:46:32;20.30;86.50
52044;DHT22;38053;53.100;6.078;2022-09-03T19:52:35;20.20;86.50
52044;DHT22;38053;53.100;6.078;2022-09-03T19:55:25;20.20;87.10
52044;DHT22;38053;53.100;6.078;2022-09-03T19:58:16;20.10;86.70
52044;DHT22;38053;53.100;6.078;2022-09-03T20:01:04;20.10;87.00
52044;DHT22;38053;53.100;6.078;2022-09-03T20:03:49;20.00;87.60
52044;DHT22;38053;53.100;6.078;2022-09-03T20:06:34;20.00;87.30
52044;DHT22;38053;53.100;6.078;2022-09-03T20:09:22;19.90;87.40
52044;DHT22;38053;53.100;6.078;2022-09-03T20:12:09;19.90;87.60
52044;DHT22;38053;53.100;6.078;2022-09-03T20:14:37;19.80;87.80
52044;DHT22;38053;53.100;6.078;2022-09-03T20:17:26;19.70;87.80
52044;DHT22;38053;53.100;6.078;2022-09-03T20:20:06;19.70;88.40
52044;DHT22;38053;53.100;6.078;2022-09-03T20:22:55;19.60;88.60
52044;DHT22;38053;53.100;6.078;2022-09-03T20:28:12;19.60;88.10
52044;DHT22;38053;53.100;6.078;2022-09-03T20:31:06;19.50;89.40
52044;DHT22;38053;53.100;6.078;2022-09-03T20:50:07;19.20;89.80
52044;DHT22;38053;53.100;6.078;2022-09-03T20:55:27;19.10;88.90
52044;DHT22;38053;53.100;6.078;2022-09-03T21:01:12;19.10;89.20
52044;DHT22;38053;53.100;6.078;2022-09-03T21:06:37;19.00;89.60
52044;DHT22;38053;53.100;6.078;2022-09-03T21:12:01;18.90;89.80
52044;DHT22;38053;53.100;6.078;2022-09-03T21:20:02;18.80;89.80
52044;DHT22;38053;53.100;6.078;2022-09-03T21:22:42;18.80;89.90
52044;DHT22;38053;53.100;6.078;2022-09-03T21:25:16;18.70;90.00
52044;DHT22;38053;53.100;6.078;2022-09-03T21:27:48;18.70;90.10
52044;DHT22;38053;53.100;6.078;2022-09-03T21:30:17;18.70;90.00
52044;DHT22;38053;53.100;6.078;2022-09-03T21:33:19;18.70;90.00
52044;DHT22;38053;53.100;6.078;2022-09-03T21:35:57;18.60;89.90
52044;DHT22;38053;53.100;6.078;2022-09-03T21:38:31;18.60;89.80
52044;DHT22;38053;53.100;6.078;2022-09-03T21:41:13;18.60;89.90
52044;DHT22;38053;53.100;6.078;2022-09-03T21:43:59;18.60;90.00
52044;DHT22;38053;53.100;6.078;2022-09-03T21:46:36;18.50;90.00
52044;DHT22;38053;53.100;6.078;2022-09-03T21:49:08;18.50;90.00
52044;DHT22;38053;53.100;6.078;2022-09-03T21:51:51;18.40;89.90
52044;DHT22;38053;53.100;6.078;2022-09-03T21:54:31;18.40;90.00
52044;DHT22;38053;53.100;6.078;2022-09-03T22:00:26;18.30;90.10
52044;DHT22;38053;53.100;6.078;2022-09-03T22:02:59;18.30;90.10
52044;DHT22;38053;53.100;6.078;2022-09-03T22:05:50;18.20;90.10
52044;DHT22;38053;53.100;6.078;2022-09-03T22:08:35;18.20;90.30
52044;DHT22;38053;53.100;6.078;2022-09-03T22:11:27;18.20;90.10
52044;DHT22;38053;53.100;6.078;2022-09-03T22:13:56;18.10;90.20
52044;DHT22;38053;53.100;6.078;2022-09-03T22:16:38;18.10;90.70
52044;DHT22;38053;53.100;6.078;2022-09-03T22:19:05;18.20;90.10
52044;DHT22;38053;53.100;6.078;2022-09-03T22:21:49;18.10;90.00
52044;DHT22;38053;53.100;6.078;2022-09-03T22:30:05;18.10;90.00
52044;DHT22;38053;53.100;6.078;2022-09-03T22:36:15;18.00;90.10
52044;DHT22;38053;53.100;6.078;2022-09-03T22:42:00;17.90;90.00
52044;DHT22;38053;53.100;6.078;2022-09-03T22:47:48;17.90;89.90
52044;DHT22;38053;53.100;6.078;2022-09-03T22:55:41;17.80;89.90
52044;DHT22;38053;53.100;6.078;2022-09-03T22:58:32;17.80;90.00
52044;DHT22;38053;53.100;6.078;2022-09-03T23:01:16;17.70;90.00
52044;DHT22;38053;53.100;6.078;2022-09-03T23:04:21;17.70;89.90
52044;DHT22;38053;53.100;6.078;2022-09-03T23:07:00;17.70;89.80
52044;DHT22;38053;53.100;6.078;2022-09-03T23:09:34;17.70;89.90
52044;DHT22;38053;53.100;6.078;2022-09-03T23:12:15;17.60;89.70
52044;DHT22;38053;53.100;6.078;2022-09-03T23:14:47;17.60;89.70
52044;DHT22;38053;53.100;6.078;2022-09-03T23:17:23;17.60;89.80